KIMT/IMT METAR and TAF weather

Enter ICAO airport designator
Station Type Date Time Source
KIMT METAR 2019/08/23 16:54 UTC NOAA

KIMT 231654Z AUTO VRB03KT 10SM FEW037 BKN049 19/08 A3028 RMK AO2 SLP257 T01890078


Station Type Date Time Source
KIMT Decoded METAR 2019/08/23 16:54 UTC NOAA

Station name not available
Aug 23, 2019 - 12:54 PM EDT / 2019.08.23 1654 UTC
Wind: Variable at 3 MPH (3 KT):0
Visibility: 10 mile(s):0
Sky conditions: mostly cloudy
Temperature: 66.0 F (18.9 C)
Dew Point: 46.0 F (7.8 C)
Relative Humidity: 48%
Pressure (altimeter): 30.28 in. Hg (1025 hPa)
ob: KIMT 231654Z AUTO VRB03KT 10SM FEW037 BKN049 19/08 A3028 RMK AO2 SLP257 T01890078
cycle: 17

Station Type Date Time Source
KIMT TAF UTC NOAA

Error!

Example: see airport list